FOON/MVB METAR and TAF weather

Enter ICAO airport designator
Station Type Date Time Source
FOON METAR 2021/07/29 17:00 UTC NOAA

FOON 291700Z 12005KT 8000 NSC 25/20 Q1012


Station Type Date Time Source
FOON Decoded METAR 2021/07/29 17:00 UTC NOAA

Franceville / Mvengue, Gabon (FOON) 01-39S 013-26E
Jul 29, 2021 - 01:00 PM EDT / 2021.07.29 1700 UTC
Wind: from the ESE (120 degrees) at 6 MPH (5 KT):0
Visibility: 4 mile(s):0
Temperature: 77 F (25 C)
Dew Point: 68 F (20 C)
Relative Humidity: 73%
Pressure (altimeter): 29.88 in. Hg (1012 hPa)
ob: FOON 291700Z 12005KT 8000 NSC 25/20 Q1012
cycle: 17

Station Type Date Time Source
FOON TAF 2012/02/17 18:21 UTC NOAA

TAF TAF FOON 151600Z 1518/1618 20004KT 9999 BKN006
TEMPO 1603/1607 0200 FG OVC002
BECMG 1612/1614 TS SCT015 FEW020CB BKN030

Example: see airport list